createdAt,value
2019-02-20T00:00:17.973Z,13.73
2019-02-20T00:03:00.399Z,9.00
2019-02-20T00:05:40.434Z,13.17
2019-02-20T00:08:20.461Z,14.73
2019-02-20T00:11:00.326Z,11.30
2019-02-20T00:13:40.215Z,8.10
2019-02-20T00:16:20.099Z,11.13
2019-02-20T00:19:00.159Z,9.13
2019-02-20T00:21:40.162Z,7.63
2019-02-20T00:24:20.068Z,14.57
2019-02-20T00:27:00.142Z,14.67
2019-02-20T00:29:40.147Z,10.43
2019-02-20T00:32:20.062Z,13.23
2019-02-20T00:35:00.289Z,11.83
2019-02-20T00:37:40.296Z,10.43
2019-02-20T00:40:20.472Z,8.27
2019-02-20T00:43:00.386Z,10.03
2019-02-20T00:46:00.013Z,8.90
2019-02-20T00:54:46.479Z,7.60
2019-02-20T00:57:26.577Z,9.77
2019-02-20T01:00:06.836Z,15.40
2019-02-20T01:02:46.642Z,14.27
2019-02-20T01:05:26.537Z,12.27
2019-02-20T01:08:06.511Z,10.67
2019-02-20T01:10:46.499Z,14.47
2019-02-20T01:13:26.667Z,9.40
2019-02-20T01:16:06.463Z,12.13
2019-02-20T01:18:46.331Z,10.47
2019-02-20T01:21:26.686Z,15.43
2019-02-20T01:24:06.846Z,12.83
2019-02-20T01:26:46.739Z,12.90
2019-02-20T01:29:26.752Z,7.60
2019-02-20T01:32:06.843Z,14.03
2019-02-20T01:34:46.870Z,11.60
2019-02-20T01:37:26.793Z,12.13
2019-02-20T01:40:06.817Z,16.30
2019-02-20T01:42:46.799Z,11.67
2019-02-20T01:45:27.122Z,14.03
2019-02-20T01:48:07.197Z,12.27
2019-02-20T01:50:47.103Z,11.27
2019-02-20T01:53:27.350Z,10.93
2019-02-20T01:56:07.123Z,11.00
2019-02-20T01:58:47.233Z,10.00
2019-02-20T02:01:26.864Z,17.37
2019-02-20T02:04:07.116Z,20.33
2019-02-20T02:06:47.020Z,14.00
2019-02-20T02:09:27.052Z,19.10
2019-02-20T02:12:07.362Z,11.90
2019-02-20T02:14:47.408Z,13.27
2019-02-20T02:17:27.327Z,18.70
2019-02-20T02:20:07.254Z,14.90
2019-02-20T02:22:47.456Z,13.20
2019-02-20T02:25:27.367Z,16.90
2019-02-20T02:28:07.302Z,13.87
2019-02-20T02:30:47.311Z,14.87
2019-02-20T02:33:27.337Z,14.57
2019-02-20T02:36:07.295Z,13.67
2019-02-20T02:38:47.831Z,13.80
2019-02-20T02:41:27.887Z,11.03
2019-02-20T02:44:08.033Z,11.23
2019-02-20T02:46:48.915Z,10.60
2019-02-20T02:49:28.894Z,11.97
2019-02-20T02:52:08.824Z,18.23
2019-02-20T02:54:48.886Z,9.63
2019-02-20T02:57:28.697Z,10.67
2019-02-20T03:00:08.628Z,11.40
2019-02-20T03:02:47.346Z,14.63
2019-02-20T03:05:34.238Z,11.27
2019-02-20T03:08:14.497Z,13.70
2019-02-20T03:10:54.508Z,13.13
2019-02-20T03:13:34.451Z,12.60
2019-02-20T03:16:14.353Z,10.27
2019-02-20T03:18:54.640Z,14.00
2019-02-20T03:21:34.619Z,15.40
2019-02-20T03:24:14.876Z,16.40
2019-02-20T03:26:55.004Z,10.80
2019-02-20T03:29:35.217Z,15.77
2019-02-20T03:32:15.342Z,13.07
2019-02-20T03:34:55.496Z,8.97
2019-02-20T03:37:35.672Z,10.97
2019-02-20T03:40:15.864Z,12.13
2019-02-20T03:42:55.971Z,16.50
2019-02-20T03:45:36.025Z,11.77
2019-02-20T03:48:15.850Z,14.03
2019-02-20T03:50:55.946Z,10.03
2019-02-20T03:53:35.923Z,16.33
2019-02-20T03:56:16.111Z,14.47
2019-02-20T03:58:55.961Z,19.00
2019-02-20T04:01:35.957Z,11.43
2019-02-20T04:04:16.072Z,16.03
2019-02-20T04:06:56.006Z,9.33
2019-02-20T04:09:36.292Z,14.73
2019-02-20T04:12:16.282Z,8.27
2019-02-20T04:14:56.291Z,15.70
2019-02-20T04:17:36.325Z,18.07
2019-02-20T04:20:16.514Z,14.40
2019-02-20T04:22:56.486Z,14.17
2019-02-20T04:25:36.296Z,14.87
2019-02-20T04:28:16.630Z,12.43
2019-02-20T04:30:56.282Z,11.77
2019-02-20T04:33:36.467Z,12.97
2019-02-20T04:36:16.350Z,13.13
2019-02-20T04:38:56.373Z,15.83
2019-02-20T04:41:36.376Z,16.37
2019-02-20T04:44:16.585Z,14.40
2019-02-20T04:46:56.404Z,14.40
2019-02-20T04:49:36.409Z,10.10
2019-02-20T04:52:16.334Z,12.50
2019-02-20T04:54:56.287Z,16.43
2019-02-20T04:57:36.345Z,17.20
2019-02-20T05:00:16.429Z,14.13
2019-02-20T05:02:56.500Z,17.77
2019-02-20T05:05:36.231Z,15.33
2019-02-20T05:08:16.255Z,11.40
2019-02-20T05:16:54.903Z,13.27
2019-02-20T05:19:34.638Z,10.90
2019-02-20T05:22:14.600Z,12.83
2019-02-20T05:24:54.602Z,11.13
2019-02-20T05:27:34.847Z,14.50
2019-02-20T05:30:14.892Z,10.70
2019-02-20T05:32:54.978Z,11.93
2019-02-20T05:35:35.146Z,17.33
2019-02-20T05:38:15.180Z,15.97
2019-02-20T05:40:55.282Z,17.83
2019-02-20T05:43:35.294Z,12.97
2019-02-20T05:46:15.510Z,18.67
2019-02-20T05:48:55.642Z,12.27
2019-02-20T05:51:35.643Z,12.40
2019-02-20T05:54:15.629Z,11.90
2019-02-20T05:56:55.673Z,10.77
2019-02-20T05:59:35.635Z,19.17
2019-02-20T06:02:15.385Z,13.20
2019-02-20T06:04:55.503Z,13.40
2019-02-20T06:07:35.665Z,13.03
2019-02-20T06:10:16.666Z,14.90
2019-02-20T06:12:56.694Z,16.27
2019-02-20T06:15:36.560Z,12.13
2019-02-20T06:18:16.421Z,16.33
2019-02-20T06:20:56.395Z,12.53
2019-02-20T06:23:36.565Z,13.23
2019-02-20T06:26:16.605Z,15.47
2019-02-20T06:28:57.368Z,19.83
2019-02-20T06:31:37.307Z,12.10
2019-02-20T06:34:17.522Z,12.00
2019-02-20T06:36:57.423Z,10.40
2019-02-20T06:39:44.669Z,11.43
2019-02-20T06:42:31.714Z,14.17
2019-02-20T06:45:11.880Z,10.60
2019-02-20T06:47:51.841Z,10.87
2019-02-20T06:50:32.035Z,15.87
2019-02-20T06:53:11.922Z,11.23
2019-02-20T06:55:51.831Z,11.00
2019-02-20T06:58:31.868Z,18.77
2019-02-20T07:01:11.834Z,9.27
2019-02-20T07:03:51.964Z,14.67
2019-02-20T07:06:31.748Z,15.07
2019-02-20T07:09:11.613Z,16.30
2019-02-20T07:11:51.748Z,16.97
2019-02-20T07:14:31.849Z,13.30
2019-02-20T07:17:11.800Z,17.53
2019-02-20T07:19:51.736Z,13.83
2019-02-20T07:22:31.566Z,20.13
2019-02-20T07:25:11.870Z,27.63
2019-02-20T07:27:51.640Z,11.83
2019-02-20T07:30:31.982Z,18.07
2019-02-20T07:33:12.599Z,12.20
2019-02-20T07:35:52.598Z,13.53
2019-02-20T07:38:32.850Z,15.07
2019-02-20T07:41:13.935Z,19.47
2019-02-20T07:43:54.114Z,18.87
2019-02-20T07:46:34.313Z,17.53
2019-02-20T07:49:14.494Z,15.57
2019-02-20T07:51:54.635Z,20.93
2019-02-20T07:54:34.787Z,18.70
2019-02-20T07:57:14.817Z,17.73
2019-02-20T07:59:54.690Z,16.20
2019-02-20T08:02:34.685Z,23.40
2019-02-20T08:05:14.756Z,19.53
2019-02-20T08:07:54.926Z,15.00
2019-02-20T08:10:35.123Z,16.53
2019-02-20T08:13:15.324Z,17.93
2019-02-20T08:15:55.291Z,20.97
2019-02-20T08:18:35.501Z,20.23
2019-02-20T08:21:15.350Z,22.33
2019-02-20T08:23:55.371Z,18.87
2019-02-20T08:26:35.340Z,18.40
2019-02-20T08:29:15.477Z,20.90
2019-02-20T08:31:55.608Z,22.30
2019-02-20T08:34:35.374Z,16.40
2019-02-20T08:37:15.164Z,20.73
2019-02-20T08:39:55.272Z,23.43
2019-02-20T08:42:36.151Z,22.33
2019-02-20T08:45:16.166Z,23.23
2019-02-20T08:47:56.042Z,21.40
2019-02-20T08:50:36.179Z,21.03
2019-02-20T08:53:15.988Z,20.83
2019-02-20T08:55:56.174Z,18.83
2019-02-20T08:58:36.019Z,18.47
2019-02-20T09:01:16.122Z,24.90
2019-02-20T09:03:56.098Z,21.70
2019-02-20T09:06:36.097Z,22.10
2019-02-20T09:09:16.090Z,19.13
2019-02-20T09:11:56.151Z,19.33
2019-02-20T09:14:36.179Z,17.57
2019-02-20T09:17:16.078Z,19.17
2019-02-20T09:19:56.095Z,21.80
2019-02-20T09:22:36.038Z,19.47
2019-02-20T09:25:19.776Z,20.63
2019-02-20T09:27:58.113Z,18.23
2019-02-20T09:30:38.576Z,17.70
2019-02-20T09:33:18.368Z,19.87
2019-02-20T09:35:58.455Z,17.70
2019-02-20T09:38:38.488Z,26.03
2019-02-20T09:41:18.348Z,20.53
2019-02-20T09:43:58.394Z,21.53
2019-02-20T09:46:38.209Z,23.27
2019-02-20T09:49:18.495Z,23.37
2019-02-20T09:51:58.303Z,21.17
2019-02-20T09:54:38.298Z,20.17
2019-02-20T09:57:18.374Z,23.50
2019-02-20T09:59:58.260Z,23.97
2019-02-20T10:02:38.000Z,20.70
2019-02-20T10:05:18.065Z,19.17
2019-02-20T10:07:58.392Z,22.03
2019-02-20T10:10:38.529Z,24.40
2019-02-20T10:13:19.363Z,20.63
2019-02-20T10:15:59.078Z,21.37
2019-02-20T10:18:39.263Z,22.13
2019-02-20T10:21:19.318Z,22.27
2019-02-20T10:23:59.166Z,20.70
2019-02-20T10:26:39.051Z,21.87
2019-02-20T10:29:19.434Z,18.27
2019-02-20T10:31:59.378Z,23.37
2019-02-20T10:34:39.130Z,28.60
2019-02-20T10:37:19.024Z,26.40
2019-02-20T10:39:59.310Z,25.27
2019-02-20T10:42:39.177Z,24.87
2019-02-20T10:45:18.949Z,22.97
2019-02-20T10:47:59.127Z,28.10
2019-02-20T10:50:39.043Z,33.30
2019-02-20T10:53:18.903Z,25.17
2019-02-20T10:55:59.004Z,22.87
2019-02-20T10:58:38.980Z,22.30
2019-02-20T11:01:19.019Z,21.00
2019-02-20T11:03:58.930Z,19.83
2019-02-20T11:06:39.109Z,18.30
2019-02-20T11:09:18.883Z,21.23
2019-02-20T11:11:59.875Z,20.13
2019-02-20T11:14:40.783Z,14.57
2019-02-20T11:17:20.771Z,16.10
2019-02-20T11:20:00.720Z,13.90
2019-02-20T11:22:40.683Z,12.70
2019-02-20T11:25:21.918Z,21.27
2019-02-20T11:28:01.790Z,14.47
2019-02-20T11:30:42.827Z,15.97
2019-02-20T11:33:22.943Z,17.73
2019-02-20T11:36:02.885Z,15.60
2019-02-20T11:38:42.929Z,17.20
2019-02-20T11:41:22.679Z,14.97
2019-02-20T11:44:02.757Z,13.33
2019-02-20T11:46:44.576Z,19.90
2019-02-20T11:49:24.682Z,13.00
2019-02-20T11:52:04.945Z,15.73
2019-02-20T11:54:44.850Z,11.17
2019-02-20T11:57:25.059Z,15.77
2019-02-20T12:00:05.205Z,16.27
2019-02-20T12:02:47.203Z,13.37
2019-02-20T12:05:27.135Z,20.17
2019-02-20T12:08:07.633Z,16.33
2019-02-20T12:10:48.147Z,13.00
2019-02-20T12:13:28.125Z,14.10
2019-02-20T12:16:08.261Z,15.97
2019-02-20T12:18:48.247Z,12.13
2019-02-20T12:21:28.375Z,16.10
2019-02-20T12:24:08.640Z,11.73
2019-02-20T12:26:49.387Z,13.73
2019-02-20T12:29:30.136Z,10.67
2019-02-20T12:32:10.695Z,10.63
2019-02-20T12:34:50.613Z,16.57
2019-02-20T12:37:30.567Z,10.57
2019-02-20T12:40:10.410Z,10.27
2019-02-20T12:42:50.616Z,10.13
2019-02-20T12:45:30.717Z,12.07
2019-02-20T12:48:10.571Z,13.40
2019-02-20T12:50:50.764Z,16.70
2019-02-20T12:53:30.876Z,13.43
2019-02-20T12:56:10.918Z,11.27
2019-02-20T12:58:38.526Z,10.23
2019-02-20T13:01:25.385Z,13.27
2019-02-20T13:04:05.754Z,15.27
2019-02-20T13:06:45.749Z,15.30
2019-02-20T13:09:25.892Z,14.43
2019-02-20T13:12:05.725Z,11.13
2019-02-20T13:14:45.859Z,8.80
2019-02-20T13:17:25.863Z,9.93
2019-02-20T13:20:05.800Z,8.43
2019-02-20T13:22:46.220Z,10.47
2019-02-20T13:25:26.225Z,14.40
2019-02-20T13:28:06.212Z,12.20
2019-02-20T13:30:46.026Z,11.97
2019-02-20T13:33:25.974Z,13.83
2019-02-20T13:36:06.171Z,9.67
2019-02-20T13:38:46.139Z,8.83
2019-02-20T13:41:25.935Z,12.57
2019-02-20T13:44:05.968Z,7.27
2019-02-20T13:46:46.119Z,7.57
2019-02-20T13:49:26.303Z,8.53
2019-02-20T13:52:06.646Z,6.10
2019-02-20T13:54:46.944Z,6.00
2019-02-20T13:57:27.921Z,7.70
2019-02-20T14:00:08.430Z,7.17
2019-02-20T14:02:50.413Z,6.23
2019-02-20T14:05:30.104Z,6.60
2019-02-20T14:08:10.339Z,5.57
2019-02-20T14:10:50.516Z,7.03
2019-02-20T14:13:30.651Z,4.47
2019-02-20T14:16:10.683Z,6.00
2019-02-20T14:18:51.399Z,7.10
2019-02-20T14:21:31.542Z,7.83
2019-02-20T14:24:11.757Z,6.57
2019-02-20T14:26:51.594Z,3.90
2019-02-20T14:29:31.672Z,6.87
2019-02-20T14:32:11.704Z,5.97
2019-02-20T14:34:51.687Z,3.80
2019-02-20T14:37:31.679Z,6.60
2019-02-20T14:39:59.346Z,4.30
2019-02-20T14:42:46.215Z,5.77
2019-02-20T14:45:26.370Z,5.23
2019-02-20T14:48:06.295Z,5.07
2019-02-20T14:50:46.367Z,4.63
2019-02-20T14:53:26.202Z,5.50
2019-02-20T14:56:06.556Z,7.90
2019-02-20T14:58:46.604Z,6.80
2019-02-20T15:01:26.786Z,5.43
2019-02-20T15:04:06.886Z,10.23
2019-02-20T15:06:34.255Z,9.10
2019-02-20T15:09:21.149Z,10.63
2019-02-20T15:12:01.150Z,8.67
2019-02-20T15:14:42.328Z,5.90
2019-02-20T15:17:22.573Z,8.27
2019-02-20T15:20:02.749Z,7.93
2019-02-20T15:22:42.779Z,7.77
2019-02-20T15:25:22.831Z,8.40
2019-02-20T15:28:04.605Z,7.20
2019-02-20T15:30:44.995Z,8.27
2019-02-20T15:33:25.067Z,10.53
2019-02-20T15:36:05.119Z,12.73
2019-02-20T15:38:32.441Z,11.20
2019-02-20T15:41:19.729Z,7.30
2019-02-20T15:43:47.179Z,6.60
2019-02-20T15:46:14.667Z,6.07
2019-02-20T15:48:54.502Z,10.27
2019-02-20T15:51:34.629Z,6.10
2019-02-20T15:54:14.834Z,9.67
2019-02-20T15:56:54.838Z,9.17
2019-02-20T15:59:35.139Z,6.60
2019-02-20T16:02:03.500Z,11.67
2019-02-20T16:04:50.386Z,7.87
2019-02-20T16:07:30.090Z,12.70
2019-02-20T16:10:10.163Z,6.27
2019-02-20T16:12:50.337Z,7.30
2019-02-20T16:15:17.844Z,5.77
2019-02-20T16:17:45.303Z,7.50
2019-02-20T16:20:33.645Z,6.93
2019-02-20T16:23:14.064Z,6.47
2019-02-20T16:25:54.118Z,6.93
2019-02-20T16:28:34.288Z,6.47
2019-02-20T16:31:14.218Z,8.43
2019-02-20T16:33:54.569Z,6.33
2019-02-20T16:36:34.567Z,7.73
2019-02-20T16:39:14.469Z,5.50
2019-02-20T16:41:54.428Z,7.83
2019-02-20T16:44:34.517Z,6.13
2019-02-20T16:47:01.905Z,7.57
2019-02-20T16:49:49.309Z,7.40
2019-02-20T16:52:29.315Z,9.87
2019-02-20T16:55:08.945Z,6.63
2019-02-20T16:57:56.358Z,7.63
2019-02-20T17:00:31.979Z,7.10
2019-02-20T17:03:11.747Z,7.97
2019-02-20T17:05:39.776Z,8.27
2019-02-20T17:08:07.372Z,8.60
2019-02-20T17:10:54.365Z,9.87
2019-02-20T17:13:21.891Z,7.53
2019-02-20T17:16:10.376Z,7.83
2019-02-20T17:18:57.389Z,9.27
2019-02-20T17:21:37.496Z,8.40
2019-02-20T17:24:17.447Z,6.80
2019-02-20T17:26:58.436Z,8.43
2019-02-20T17:29:38.283Z,9.53
2019-02-20T17:32:19.336Z,7.60
2019-02-20T17:34:59.321Z,9.07
2019-02-20T17:37:39.431Z,8.80
2019-02-20T17:40:19.938Z,10.40
2019-02-20T17:42:59.610Z,17.50
2019-02-20T17:45:39.738Z,11.07
2019-02-20T17:48:19.503Z,13.63
2019-02-20T17:50:59.480Z,13.47
2019-02-20T17:53:39.366Z,13.40
2019-02-20T17:56:19.451Z,17.83
2019-02-20T17:58:59.527Z,11.80
2019-02-20T18:01:39.554Z,10.03
2019-02-20T18:04:07.133Z,14.13
2019-02-20T18:06:54.130Z,14.43
2019-02-20T18:09:34.731Z,12.87
2019-02-20T18:12:02.049Z,9.07
2019-02-20T18:14:48.960Z,12.33
2019-02-20T18:17:28.554Z,13.40
2019-02-20T18:20:08.534Z,13.10
2019-02-20T18:22:48.566Z,12.67
2019-02-20T18:25:28.476Z,10.40
2019-02-20T18:28:08.448Z,11.37
2019-02-20T18:30:48.644Z,12.43
2019-02-20T18:33:28.895Z,15.70
2019-02-20T18:36:08.834Z,15.90
2019-02-20T18:38:49.328Z,15.27
2019-02-20T18:41:29.348Z,13.27
2019-02-20T18:44:09.234Z,15.67
2019-02-20T18:46:49.391Z,12.77
2019-02-20T18:49:30.007Z,17.93
2019-02-20T18:52:10.318Z,13.23
2019-02-20T18:54:50.292Z,14.03
2019-02-20T18:57:30.166Z,13.70
2019-02-20T18:59:57.974Z,14.83
2019-02-20T19:02:25.536Z,12.80
2019-02-20T19:04:52.971Z,16.40
2019-02-20T19:07:20.584Z,10.60
2019-02-20T19:09:48.849Z,16.83
2019-02-20T19:12:57.243Z,16.30
2019-02-20T19:15:50.482Z,13.60
2019-02-20T19:19:02.549Z,15.77
2019-02-20T19:21:39.226Z,13.20
2019-02-20T19:24:18.848Z,12.13
2019-02-20T19:26:59.240Z,12.33
2019-02-20T19:29:39.382Z,17.10
2019-02-20T19:32:46.157Z,14.17
2019-02-20T19:35:52.854Z,12.10
2019-02-20T19:38:32.757Z,14.53
2019-02-20T19:41:12.746Z,14.20
2019-02-20T19:43:53.558Z,11.93
2019-02-20T19:46:34.083Z,12.83
2019-02-20T19:49:14.288Z,10.57
2019-02-20T19:51:54.374Z,16.07
2019-02-20T19:54:34.297Z,14.60
2019-02-20T19:57:14.456Z,14.47
2019-02-20T19:59:54.458Z,12.67
2019-02-20T20:02:34.782Z,14.07
2019-02-20T20:05:14.506Z,14.37
2019-02-20T20:07:54.301Z,16.50
2019-02-20T20:10:34.445Z,20.07
2019-02-20T20:13:14.373Z,16.87
2019-02-20T20:15:54.461Z,23.30
2019-02-20T20:18:34.588Z,19.13
2019-02-20T20:21:14.474Z,20.43
2019-02-20T20:23:54.664Z,11.67
2019-02-20T20:26:34.387Z,12.80
2019-02-20T20:29:14.500Z,15.23
2019-02-20T20:31:54.627Z,14.07
2019-02-20T20:35:01.198Z,12.47
2019-02-20T20:38:07.715Z,13.33
2019-02-20T20:40:47.761Z,12.97
2019-02-20T20:43:42.718Z,11.00
2019-02-20T20:46:50.281Z,13.40
2019-02-20T20:49:31.065Z,12.33
2019-02-20T20:52:11.195Z,13.30
2019-02-20T20:54:51.240Z,11.10
2019-02-20T20:57:44.972Z,15.77
2019-02-20T21:00:51.336Z,12.73
2019-02-20T21:03:31.474Z,12.83
2019-02-20T21:06:11.320Z,12.47
2019-02-20T21:08:51.404Z,11.83
2019-02-20T21:11:31.394Z,10.63
2019-02-20T21:14:11.183Z,12.50
2019-02-20T21:16:51.373Z,10.73
2019-02-20T21:19:31.709Z,13.63
2019-02-20T21:22:11.530Z,10.67
2019-02-20T21:24:51.632Z,13.30
2019-02-20T21:27:31.482Z,12.27
2019-02-20T21:30:13.448Z,13.07
2019-02-20T21:32:53.626Z,14.70
2019-02-20T21:35:33.810Z,15.50
2019-02-20T21:38:14.554Z,14.50
2019-02-20T21:40:54.946Z,16.30
2019-02-20T21:43:35.386Z,12.03
2019-02-20T21:46:15.432Z,13.33
2019-02-20T21:48:55.547Z,14.53
2019-02-20T21:51:35.521Z,13.70
2019-02-20T21:54:42.042Z,17.27
2019-02-20T21:57:33.545Z,12.57
2019-02-20T22:00:13.715Z,17.03
2019-02-20T22:02:54.675Z,17.13
2019-02-20T22:05:50.179Z,14.90
2019-02-20T22:08:47.036Z,13.53
2019-02-20T22:11:26.614Z,16.67
2019-02-20T22:14:33.087Z,14.37
2019-02-20T22:17:33.174Z,11.47
2019-02-20T22:20:13.649Z,13.23
2019-02-20T22:22:53.654Z,12.40
2019-02-20T22:25:33.514Z,16.20
2019-02-20T22:28:13.598Z,14.87
2019-02-20T22:31:15.179Z,16.33
2019-02-20T22:34:06.323Z,17.03
2019-02-20T22:37:18.608Z,14.40
2019-02-20T22:40:25.054Z,13.17
2019-02-20T22:43:05.469Z,12.80
2019-02-20T22:45:45.428Z,15.63
2019-02-20T22:48:25.380Z,12.33
2019-02-20T22:51:05.580Z,13.33
2019-02-20T22:53:45.669Z,16.03
2019-02-20T22:56:25.831Z,14.90
2019-02-20T22:59:05.671Z,14.23
2019-02-20T23:01:45.579Z,15.57
2019-02-20T23:04:25.532Z,19.77
2019-02-20T23:07:05.391Z,16.33
2019-02-20T23:09:45.286Z,16.90
2019-02-20T23:12:25.225Z,17.00
2019-02-20T23:15:04.973Z,18.93
2019-02-20T23:17:45.110Z,17.37
2019-02-20T23:20:24.818Z,16.43
2019-02-20T23:23:04.625Z,19.97
2019-02-20T23:25:44.559Z,18.43
2019-02-20T23:28:24.472Z,15.50
2019-02-20T23:30:51.871Z,20.60
2019-02-20T23:33:38.742Z,17.30
2019-02-20T23:36:18.805Z,17.27
2019-02-20T23:38:58.531Z,15.30
2019-02-20T23:41:38.612Z,18.17
2019-02-20T23:44:19.432Z,16.03
2019-02-20T23:46:59.611Z,15.23
2019-02-20T23:49:39.595Z,19.23
2019-02-20T23:52:19.460Z,16.00
2019-02-20T23:54:59.348Z,18.37
2019-02-20T23:57:39.595Z,18.80
